sensor_id;sensor_type;location;lat;lon;timestamp;P1;durP1;ratioP1;P2;durP2;ratioP2
1975;SDS011;988;48.016;7.800;2022-12-07T00:00:27;27.80;;;25.07;;
1975;SDS011;988;48.016;7.800;2022-12-07T00:02:53;28.00;;;25.20;;
1975;SDS011;988;48.016;7.800;2022-12-07T00:05:19;27.83;;;25.10;;
1975;SDS011;988;48.016;7.800;2022-12-07T00:07:44;30.37;;;27.17;;
1975;SDS011;988;48.016;7.800;2022-12-07T00:10:10;27.53;;;24.77;;
1975;SDS011;988;48.016;7.800;2022-12-07T00:12:35;30.13;;;27.00;;
1975;SDS011;988;48.016;7.800;2022-12-07T00:15:01;28.67;;;25.90;;
1975;SDS011;988;48.016;7.800;2022-12-07T00:17:27;29.17;;;26.10;;
1975;SDS011;988;48.016;7.800;2022-12-07T00:19:52;30.10;;;26.93;;
1975;SDS011;988;48.016;7.800;2022-12-07T00:22:18;31.20;;;28.00;;
1975;SDS011;988;48.016;7.800;2022-12-07T00:24:43;30.77;;;27.60;;
1975;SDS011;988;48.016;7.800;2022-12-07T00:27:09;31.73;;;28.33;;
1975;SDS011;988;48.016;7.800;2022-12-07T00:29:34;30.70;;;27.37;;
1975;SDS011;988;48.016;7.800;2022-12-07T00:32:02;32.58;;;26.58;;
1975;SDS011;988;48.016;7.800;2022-12-07T00:34:28;27.63;;;24.70;;
1975;SDS011;988;48.016;7.800;2022-12-07T00:36:53;26.23;;;23.50;;
1975;SDS011;988;48.016;7.800;2022-12-07T00:39:19;30.40;;;25.20;;
1975;SDS011;988;48.016;7.800;2022-12-07T00:41:44;28.33;;;24.73;;
1975;SDS011;988;48.016;7.800;2022-12-07T00:44:10;27.70;;;24.20;;
1975;SDS011;988;48.016;7.800;2022-12-07T00:46:36;29.57;;;25.17;;
1975;SDS011;988;48.016;7.800;2022-12-07T00:49:01;31.13;;;25.93;;
1975;SDS011;988;48.016;7.800;2022-12-07T00:51:28;30.13;;;26.58;;
1975;SDS011;988;48.016;7.800;2022-12-07T00:53:53;29.97;;;26.97;;
1975;SDS011;988;48.016;7.800;2022-12-07T00:56:23;28.20;;;25.10;;
1975;SDS011;988;48.016;7.800;2022-12-07T00:58:51;31.17;;;28.10;;
1975;SDS011;988;48.016;7.800;2022-12-07T01:01:21;33.33;;;28.20;;
1975;SDS011;988;48.016;7.800;2022-12-07T01:03:47;33.17;;;27.27;;
1975;SDS011;988;48.016;7.800;2022-12-07T01:06:16;30.90;;;27.73;;
1975;SDS011;988;48.016;7.800;2022-12-07T01:08:43;28.90;;;25.85;;
1975;SDS011;988;48.016;7.800;2022-12-07T01:11:09;29.00;;;26.20;;
1975;SDS011;988;48.016;7.800;2022-12-07T01:13:38;29.67;;;26.52;;
1975;SDS011;988;48.016;7.800;2022-12-07T01:16:05;29.33;;;26.13;;
1975;SDS011;988;48.016;7.800;2022-12-07T01:18:32;33.42;;;28.73;;
1975;SDS011;988;48.016;7.800;2022-12-07T01:21:03;30.75;;;27.55;;
1975;SDS011;988;48.016;7.800;2022-12-07T01:23:31;30.95;;;27.55;;
1975;SDS011;988;48.016;7.800;2022-12-07T01:25:58;30.52;;;27.23;;
1975;SDS011;988;48.016;7.800;2022-12-07T01:28:25;31.15;;;27.88;;
1975;SDS011;988;48.016;7.800;2022-12-07T01:31:11;30.13;;;27.08;;
1975;SDS011;988;48.016;7.800;2022-12-07T01:33:40;32.97;;;26.55;;
1975;SDS011;988;48.016;7.800;2022-12-07T01:38:33;30.73;;;27.48;;
1975;SDS011;988;48.016;7.800;2022-12-07T01:40:59;30.47;;;27.40;;
1975;SDS011;988;48.016;7.800;2022-12-07T01:43:27;34.90;;;30.45;;
1975;SDS011;988;48.016;7.800;2022-12-07T01:45:54;31.38;;;28.02;;
1975;SDS011;988;48.016;7.800;2022-12-07T01:48:22;34.45;;;29.20;;
1975;SDS011;988;48.016;7.800;2022-12-07T01:50:52;32.65;;;29.10;;
1975;SDS011;988;48.016;7.800;2022-12-07T01:53:21;31.98;;;28.48;;
1975;SDS011;988;48.016;7.800;2022-12-07T01:55:51;35.60;;;28.63;;
1975;SDS011;988;48.016;7.800;2022-12-07T01:58:18;32.35;;;28.95;;
1975;SDS011;988;48.016;7.800;2022-12-07T02:00:43;32.73;;;28.87;;
1975;SDS011;988;48.016;7.800;2022-12-07T02:03:11;32.30;;;28.87;;
1975;SDS011;988;48.016;7.800;2022-12-07T02:05:42;31.98;;;27.65;;
1975;SDS011;988;48.016;7.800;2022-12-07T02:08:08;31.40;;;28.30;;
1975;SDS011;988;48.016;7.800;2022-12-07T02:10:35;31.15;;;26.60;;
1975;SDS011;988;48.016;7.800;2022-12-07T02:13:05;31.60;;;28.20;;
1975;SDS011;988;48.016;7.800;2022-12-07T02:15:43;29.40;;;25.88;;
1975;SDS011;988;48.016;7.800;2022-12-07T02:21:08;29.25;;;26.25;;
1975;SDS011;988;48.016;7.800;2022-12-07T02:29:10;28.05;;;25.35;;
1975;SDS011;988;48.016;7.800;2022-12-07T02:32:04;26.13;;;23.45;;
1975;SDS011;988;48.016;7.800;2022-12-07T02:38:22;25.98;;;23.30;;
1975;SDS011;988;48.016;7.800;2022-12-07T02:40:27;25.17;;;22.50;;
1975;SDS011;988;48.016;7.800;2022-12-07T02:45:39;31.67;;;23.30;;
1975;SDS011;988;48.016;7.800;2022-12-07T02:48:07;25.75;;;23.10;;
1975;SDS011;988;48.016;7.800;2022-12-07T02:50:36;28.85;;;23.40;;
1975;SDS011;988;48.016;7.800;2022-12-07T02:53:01;25.70;;;23.00;;
1975;SDS011;988;48.016;7.800;2022-12-07T02:55:33;28.23;;;23.40;;
1975;SDS011;988;48.016;7.800;2022-12-07T03:00:48;25.85;;;23.20;;
1975;SDS011;988;48.016;7.800;2022-12-07T03:03:21;25.95;;;23.25;;
1975;SDS011;988;48.016;7.800;2022-12-07T03:10:50;27.00;;;22.65;;
1975;SDS011;988;48.016;7.800;2022-12-07T03:18:38;27.67;;;24.83;;
1975;SDS011;988;48.016;7.800;2022-12-07T03:21:10;28.17;;;24.80;;
1975;SDS011;988;48.016;7.800;2022-12-07T03:23:39;26.83;;;23.98;;
1975;SDS011;988;48.016;7.800;2022-12-07T03:26:08;29.33;;;24.05;;
1975;SDS011;988;48.016;7.800;2022-12-07T03:28:38;27.23;;;24.40;;
1975;SDS011;988;48.016;7.800;2022-12-07T03:34:18;27.92;;;25.02;;
1975;SDS011;988;48.016;7.800;2022-12-07T03:37:06;26.38;;;23.83;;
1975;SDS011;988;48.016;7.800;2022-12-07T03:39:41;27.73;;;24.35;;
1975;SDS011;988;48.016;7.800;2022-12-07T03:42:13;28.67;;;25.67;;
1975;SDS011;988;48.016;7.800;2022-12-07T03:44:39;32.20;;;27.93;;
1975;SDS011;988;48.016;7.800;2022-12-07T03:47:12;28.33;;;25.45;;
1975;SDS011;988;48.016;7.800;2022-12-07T03:49:52;27.17;;;24.60;;
1975;SDS011;988;48.016;7.800;2022-12-07T03:52:24;27.58;;;24.80;;
1975;SDS011;988;48.016;7.800;2022-12-07T03:54:53;27.80;;;25.05;;
1975;SDS011;988;48.016;7.800;2022-12-07T03:57:39;27.05;;;24.25;;
1975;SDS011;988;48.016;7.800;2022-12-07T04:00:08;27.73;;;24.88;;
1975;SDS011;988;48.016;7.800;2022-12-07T04:02:35;27.77;;;24.85;;
1975;SDS011;988;48.016;7.800;2022-12-07T04:05:02;26.60;;;23.83;;
1975;SDS011;988;48.016;7.800;2022-12-07T04:07:28;28.75;;;25.85;;
1975;SDS011;988;48.016;7.800;2022-12-07T04:09:54;28.67;;;25.67;;
1975;SDS011;988;48.016;7.800;2022-12-07T04:12:22;28.48;;;25.42;;
1975;SDS011;988;48.016;7.800;2022-12-07T04:14:48;28.15;;;25.27;;
1975;SDS011;988;48.016;7.800;2022-12-07T04:17:14;28.70;;;25.77;;
1975;SDS011;988;48.016;7.800;2022-12-07T04:19:40;29.77;;;25.40;;
1975;SDS011;988;48.016;7.800;2022-12-07T04:22:05;27.00;;;24.50;;
1975;SDS011;988;48.016;7.800;2022-12-07T04:24:32;29.25;;;26.45;;
1975;SDS011;988;48.016;7.800;2022-12-07T04:26:58;29.25;;;26.17;;
1975;SDS011;988;48.016;7.800;2022-12-07T04:29:24;29.60;;;26.70;;
1975;SDS011;988;48.016;7.800;2022-12-07T04:31:50;29.15;;;26.42;;
1975;SDS011;988;48.016;7.800;2022-12-07T04:34:16;28.53;;;25.63;;
1975;SDS011;988;48.016;7.800;2022-12-07T04:36:42;30.92;;;27.92;;
1975;SDS011;988;48.016;7.800;2022-12-07T04:39:13;27.55;;;24.65;;
1975;SDS011;988;48.016;7.800;2022-12-07T04:41:50;28.25;;;25.45;;
1975;SDS011;988;48.016;7.800;2022-12-07T04:44:16;38.53;;;34.43;;
1975;SDS011;988;48.016;7.800;2022-12-07T04:46:42;28.17;;;25.30;;
1975;SDS011;988;48.016;7.800;2022-12-07T04:49:14;31.40;;;27.83;;
1975;SDS011;988;48.016;7.800;2022-12-07T04:51:40;30.30;;;25.98;;
1975;SDS011;988;48.016;7.800;2022-12-07T04:54:07;28.15;;;25.25;;
1975;SDS011;988;48.016;7.800;2022-12-07T04:56:33;28.17;;;25.43;;
1975;SDS011;988;48.016;7.800;2022-12-07T04:59:00;28.00;;;25.50;;
1975;SDS011;988;48.016;7.800;2022-12-07T05:01:26;26.33;;;23.60;;
1975;SDS011;988;48.016;7.800;2022-12-07T05:03:52;28.27;;;25.27;;
1975;SDS011;988;48.016;7.800;2022-12-07T05:06:18;27.80;;;24.97;;
1975;SDS011;988;48.016;7.800;2022-12-07T05:08:43;28.57;;;25.73;;
1975;SDS011;988;48.016;7.800;2022-12-07T05:11:09;27.03;;;24.40;;
1975;SDS011;988;48.016;7.800;2022-12-07T05:13:55;28.55;;;25.40;;
1975;SDS011;988;48.016;7.800;2022-12-07T05:16:21;29.23;;;26.38;;
1975;SDS011;988;48.016;7.800;2022-12-07T05:18:47;27.53;;;24.67;;
1975;SDS011;988;48.016;7.800;2022-12-07T05:21:12;25.57;;;23.00;;
1975;SDS011;988;48.016;7.800;2022-12-07T05:23:38;25.93;;;23.33;;
1975;SDS011;988;48.016;7.800;2022-12-07T05:26:03;27.30;;;23.77;;
1975;SDS011;988;48.016;7.800;2022-12-07T05:28:29;26.53;;;23.83;;
1975;SDS011;988;48.016;7.800;2022-12-07T05:30:55;26.75;;;24.05;;
1975;SDS011;988;48.016;7.800;2022-12-07T05:33:21;26.80;;;24.00;;
1975;SDS011;988;48.016;7.800;2022-12-07T05:35:46;27.47;;;24.70;;
1975;SDS011;988;48.016;7.800;2022-12-07T05:38:12;28.73;;;24.80;;
1975;SDS011;988;48.016;7.800;2022-12-07T05:40:38;26.27;;;23.70;;
1975;SDS011;988;48.016;7.800;2022-12-07T05:43:03;25.80;;;23.33;;
1975;SDS011;988;48.016;7.800;2022-12-07T05:45:29;26.37;;;23.73;;
1975;SDS011;988;48.016;7.800;2022-12-07T05:47:54;30.30;;;27.20;;
1975;SDS011;988;48.016;7.800;2022-12-07T05:50:20;29.47;;;26.50;;
1975;SDS011;988;48.016;7.800;2022-12-07T05:52:45;26.43;;;23.80;;
1975;SDS011;988;48.016;7.800;2022-12-07T05:55:11;27.77;;;25.00;;
1975;SDS011;988;48.016;7.800;2022-12-07T05:57:36;28.73;;;25.73;;
1975;SDS011;988;48.016;7.800;2022-12-07T06:00:03;27.40;;;24.60;;
1975;SDS011;988;48.016;7.800;2022-12-07T06:02:29;27.83;;;24.95;;
1975;SDS011;988;48.016;7.800;2022-12-07T06:04:55;27.70;;;25.20;;
1975;SDS011;988;48.016;7.800;2022-12-07T06:07:20;27.57;;;24.77;;
1975;SDS011;988;48.016;7.800;2022-12-07T06:09:46;67.07;;;45.03;;
1975;SDS011;988;48.016;7.800;2022-12-07T06:12:12;49.23;;;35.70;;
1975;SDS011;988;48.016;7.800;2022-12-07T06:14:57;38.28;;;29.52;;
1975;SDS011;988;48.016;7.800;2022-12-07T06:17:23;46.70;;;32.93;;
1975;SDS011;988;48.016;7.800;2022-12-07T06:19:48;79.13;;;45.83;;
1975;SDS011;988;48.016;7.800;2022-12-07T06:22:14;35.07;;;31.27;;
1975;SDS011;988;48.016;7.800;2022-12-07T06:24:41;31.15;;;27.85;;
1975;SDS011;988;48.016;7.800;2022-12-07T06:27:07;28.13;;;25.33;;
1975;SDS011;988;48.016;7.800;2022-12-07T06:29:33;30.52;;;27.33;;
1975;SDS011;988;48.016;7.800;2022-12-07T06:31:58;41.07;;;30.70;;
1975;SDS011;988;48.016;7.800;2022-12-07T06:34:25;37.07;;;30.10;;
1975;SDS011;988;48.016;7.800;2022-12-07T06:36:51;31.35;;;26.75;;
1975;SDS011;988;48.016;7.800;2022-12-07T06:39:20;31.27;;;27.23;;
1975;SDS011;988;48.016;7.800;2022-12-07T06:41:49;32.00;;;26.60;;
1975;SDS011;988;48.016;7.800;2022-12-07T06:44:16;27.65;;;24.85;;
1975;SDS011;988;48.016;7.800;2022-12-07T06:46:43;26.88;;;24.20;;
1975;SDS011;988;48.016;7.800;2022-12-07T06:49:08;29.70;;;26.47;;
1975;SDS011;988;48.016;7.800;2022-12-07T06:51:34;28.37;;;25.37;;
1975;SDS011;988;48.016;7.800;2022-12-07T06:54:01;30.73;;;27.30;;
1975;SDS011;988;48.016;7.800;2022-12-07T06:56:29;31.45;;;28.10;;
1975;SDS011;988;48.016;7.800;2022-12-07T06:58:54;30.50;;;27.40;;
1975;SDS011;988;48.016;7.800;2022-12-07T07:01:21;30.65;;;27.45;;
1975;SDS011;988;48.016;7.800;2022-12-07T07:03:47;30.92;;;26.63;;
1975;SDS011;988;48.016;7.800;2022-12-07T07:06:13;35.30;;;27.10;;
1975;SDS011;988;48.016;7.800;2022-12-07T07:08:39;31.73;;;25.98;;
1975;SDS011;988;48.016;7.800;2022-12-07T07:11:05;30.13;;;23.97;;
1975;SDS011;988;48.016;7.800;2022-12-07T07:13:32;54.85;;;25.55;;
1975;SDS011;988;48.016;7.800;2022-12-07T07:15:58;47.73;;;25.53;;
1975;SDS011;988;48.016;7.800;2022-12-07T07:18:24;51.30;;;23.27;;
1975;SDS011;988;48.016;7.800;2022-12-07T07:20:50;42.28;;;22.75;;
1975;SDS011;988;48.016;7.800;2022-12-07T07:23:16;98.75;;;26.88;;
1975;SDS011;988;48.016;7.800;2022-12-07T07:25:42;58.65;;;24.48;;
1975;SDS011;988;48.016;7.800;2022-12-07T07:28:08;53.63;;;22.30;;
1975;SDS011;988;48.016;7.800;2022-12-07T07:30:33;34.37;;;23.07;;
1975;SDS011;988;48.016;7.800;2022-12-07T07:32:59;34.77;;;23.43;;
1975;SDS011;988;48.016;7.800;2022-12-07T07:35:27;30.88;;;22.48;;
1975;SDS011;988;48.016;7.800;2022-12-07T07:37:54;33.00;;;24.17;;
1975;SDS011;988;48.016;7.800;2022-12-07T07:40:20;29.70;;;24.23;;
1975;SDS011;988;48.016;7.800;2022-12-07T07:42:52;29.17;;;22.10;;
1975;SDS011;988;48.016;7.800;2022-12-07T07:45:19;29.83;;;21.52;;
1975;SDS011;988;48.016;7.800;2022-12-07T07:47:46;31.45;;;23.45;;
1975;SDS011;988;48.016;7.800;2022-12-07T07:50:12;25.90;;;23.20;;
1975;SDS011;988;48.016;7.800;2022-12-07T07:52:37;27.13;;;24.17;;
1975;SDS011;988;48.016;7.800;2022-12-07T07:55:03;30.60;;;27.47;;
1975;SDS011;988;48.016;7.800;2022-12-07T07:57:29;30.63;;;27.65;;
1975;SDS011;988;48.016;7.800;2022-12-07T07:59:55;33.73;;;30.47;;
1975;SDS011;988;48.016;7.800;2022-12-07T08:02:21;35.63;;;32.20;;
1975;SDS011;988;48.016;7.800;2022-12-07T08:04:47;32.22;;;29.13;;
1975;SDS011;988;48.016;7.800;2022-12-07T08:07:13;30.33;;;27.53;;
1975;SDS011;988;48.016;7.800;2022-12-07T08:09:39;30.17;;;27.48;;
1975;SDS011;988;48.016;7.800;2022-12-07T08:12:04;29.07;;;26.00;;
1975;SDS011;988;48.016;7.800;2022-12-07T08:14:31;33.40;;;30.30;;
1975;SDS011;988;48.016;7.800;2022-12-07T08:16:57;32.58;;;29.58;;
1975;SDS011;988;48.016;7.800;2022-12-07T08:19:23;29.37;;;27.00;;
1975;SDS011;988;48.016;7.800;2022-12-07T08:21:49;30.40;;;27.73;;
1975;SDS011;988;48.016;7.800;2022-12-07T08:24:14;27.70;;;25.40;;
1975;SDS011;988;48.016;7.800;2022-12-07T08:26:40;28.37;;;26.07;;
1975;SDS011;988;48.016;7.800;2022-12-07T08:29:06;28.30;;;25.90;;
1975;SDS011;988;48.016;7.800;2022-12-07T08:31:32;29.67;;;27.10;;
1975;SDS011;988;48.016;7.800;2022-12-07T08:33:58;26.30;;;24.10;;
1975;SDS011;988;48.016;7.800;2022-12-07T08:36:23;29.77;;;27.20;;
1975;SDS011;988;48.016;7.800;2022-12-07T08:38:49;28.00;;;25.80;;
1975;SDS011;988;48.016;7.800;2022-12-07T08:41:15;31.23;;;28.63;;
1975;SDS011;988;48.016;7.800;2022-12-07T08:43:41;29.00;;;26.50;;
1975;SDS011;988;48.016;7.800;2022-12-07T08:46:08;28.63;;;26.30;;
1975;SDS011;988;48.016;7.800;2022-12-07T08:48:39;29.50;;;26.85;;
1975;SDS011;988;48.016;7.800;2022-12-07T08:51:11;27.88;;;25.67;;
1975;SDS011;988;48.016;7.800;2022-12-07T08:53:37;28.20;;;25.70;;
1975;SDS011;988;48.016;7.800;2022-12-07T08:56:04;28.27;;;26.15;;
1975;SDS011;988;48.016;7.800;2022-12-07T08:58:32;28.38;;;26.25;;
1975;SDS011;988;48.016;7.800;2022-12-07T09:00:58;28.60;;;26.40;;
1975;SDS011;988;48.016;7.800;2022-12-07T09:06:12;27.88;;;25.23;;
1975;SDS011;988;48.016;7.800;2022-12-07T09:08:39;29.43;;;27.20;;
1975;SDS011;988;48.016;7.800;2022-12-07T09:11:11;28.33;;;25.95;;
1975;SDS011;988;48.016;7.800;2022-12-07T09:13:36;31.23;;;28.70;;
1975;SDS011;988;48.016;7.800;2022-12-07T09:16:02;28.77;;;26.17;;
1975;SDS011;988;48.016;7.800;2022-12-07T09:18:28;31.60;;;29.10;;
1975;SDS011;988;48.016;7.800;2022-12-07T09:20:53;34.60;;;32.10;;
1975;SDS011;988;48.016;7.800;2022-12-07T09:23:19;31.90;;;29.50;;
1975;SDS011;988;48.016;7.800;2022-12-07T09:25:44;31.90;;;29.63;;
1975;SDS011;988;48.016;7.800;2022-12-07T09:28:10;32.50;;;30.10;;
1975;SDS011;988;48.016;7.800;2022-12-07T09:30:35;32.80;;;30.40;;
1975;SDS011;988;48.016;7.800;2022-12-07T09:33:01;32.70;;;30.40;;
1975;SDS011;988;48.016;7.800;2022-12-07T09:35:27;32.00;;;29.80;;
1975;SDS011;988;48.016;7.800;2022-12-07T09:37:52;31.27;;;29.07;;
1975;SDS011;988;48.016;7.800;2022-12-07T09:40:19;31.77;;;29.67;;
1975;SDS011;988;48.016;7.800;2022-12-07T09:42:48;32.60;;;30.27;;
1975;SDS011;988;48.016;7.800;2022-12-07T09:45:23;33.93;;;31.33;;
1975;SDS011;988;48.016;7.800;2022-12-07T09:47:51;41.07;;;37.97;;
1975;SDS011;988;48.016;7.800;2022-12-07T09:50:21;32.63;;;29.93;;
1975;SDS011;988;48.016;7.800;2022-12-07T09:52:49;42.40;;;38.70;;
1975;SDS011;988;48.016;7.800;2022-12-07T09:55:19;40.27;;;36.77;;
1975;SDS011;988;48.016;7.800;2022-12-07T09:57:49;44.93;;;40.70;;
1975;SDS011;988;48.016;7.800;2022-12-07T10:00:17;31.03;;;28.83;;
1975;SDS011;988;48.016;7.800;2022-12-07T10:02:47;31.67;;;29.23;;
1975;SDS011;988;48.016;7.800;2022-12-07T10:05:20;33.70;;;31.17;;
1975;SDS011;988;48.016;7.800;2022-12-07T10:07:53;34.63;;;32.43;;
1975;SDS011;988;48.016;7.800;2022-12-07T10:10:22;36.13;;;33.93;;
1975;SDS011;988;48.016;7.800;2022-12-07T10:12:54;33.17;;;30.97;;
1975;SDS011;988;48.016;7.800;2022-12-07T10:15:20;34.70;;;32.20;;
1975;SDS011;988;48.016;7.800;2022-12-07T10:17:49;32.50;;;30.40;;
1975;SDS011;988;48.016;7.800;2022-12-07T10:20:18;35.63;;;33.30;;
1975;SDS011;988;48.016;7.800;2022-12-07T10:22:59;32.80;;;30.43;;
1975;SDS011;988;48.016;7.800;2022-12-07T10:25:36;34.37;;;31.97;;
1975;SDS011;988;48.016;7.800;2022-12-07T10:31:24;33.43;;;31.33;;
1975;SDS011;988;48.016;7.800;2022-12-07T10:33:52;34.43;;;31.90;;
1975;SDS011;988;48.016;7.800;2022-12-07T10:36:34;30.63;;;28.70;;
1975;SDS011;988;48.016;7.800;2022-12-07T10:42:02;30.83;;;28.73;;
1975;SDS011;988;48.016;7.800;2022-12-07T10:44:29;29.73;;;27.83;;
1975;SDS011;988;48.016;7.800;2022-12-07T10:52:25;33.67;;;31.27;;
1975;SDS011;988;48.016;7.800;2022-12-07T11:00:43;56.87;;;53.07;;
1975;SDS011;988;48.016;7.800;2022-12-07T11:06:05;31.67;;;29.67;;
1975;SDS011;988;48.016;7.800;2022-12-07T11:11:45;31.33;;;29.17;;
1975;SDS011;988;48.016;7.800;2022-12-07T11:14:31;30.73;;;28.60;;
1975;SDS011;988;48.016;7.800;2022-12-07T11:17:14;31.87;;;29.97;;
1975;SDS011;988;48.016;7.800;2022-12-07T11:20:05;31.57;;;29.47;;
1975;SDS011;988;48.016;7.800;2022-12-07T11:25:47;30.33;;;28.30;;
1975;SDS011;988;48.016;7.800;2022-12-07T11:28:41;30.70;;;28.70;;
1975;SDS011;988;48.016;7.800;2022-12-07T11:31:23;30.20;;;28.40;;
1975;SDS011;988;48.016;7.800;2022-12-07T11:33:57;29.27;;;27.27;;
1975;SDS011;988;48.016;7.800;2022-12-07T11:36:33;30.93;;;28.90;;
1975;SDS011;988;48.016;7.800;2022-12-07T11:39:04;29.73;;;27.77;;
1975;SDS011;988;48.016;7.800;2022-12-07T11:41:46;32.93;;;29.80;;
1975;SDS011;988;48.016;7.800;2022-12-07T11:44:25;32.03;;;29.93;;
1975;SDS011;988;48.016;7.800;2022-12-07T11:49:53;30.20;;;28.40;;
1975;SDS011;988;48.016;7.800;2022-12-07T11:52:32;30.83;;;28.73;;
1975;SDS011;988;48.016;7.800;2022-12-07T11:55:21;29.30;;;27.10;;
1975;SDS011;988;48.016;7.800;2022-12-07T11:57:52;30.93;;;28.83;;
1975;SDS011;988;48.016;7.800;2022-12-07T12:00:26;28.70;;;26.80;;
1975;SDS011;988;48.016;7.800;2022-12-07T12:03:12;29.90;;;27.90;;
1975;SDS011;988;48.016;7.800;2022-12-07T12:05:45;28.00;;;26.20;;
1975;SDS011;988;48.016;7.800;2022-12-07T12:08:27;28.93;;;26.83;;
1975;SDS011;988;48.016;7.800;2022-12-07T12:16:30;26.47;;;24.77;;
1975;SDS011;988;48.016;7.800;2022-12-07T12:22:06;30.47;;;28.27;;
1975;SDS011;988;48.016;7.800;2022-12-07T12:24:45;25.83;;;24.23;;
1975;SDS011;988;48.016;7.800;2022-12-07T12:27:23;24.30;;;22.80;;
1975;SDS011;988;48.016;7.800;2022-12-07T12:29:59;24.27;;;22.63;;
1975;SDS011;988;48.016;7.800;2022-12-07T12:37:48;26.50;;;24.50;;
1975;SDS011;988;48.016;7.800;2022-12-07T12:42:57;52.73;;;39.77;;
1975;SDS011;988;48.016;7.800;2022-12-07T12:45:29;70.43;;;51.40;;
1975;SDS011;988;48.016;7.800;2022-12-07T12:50:29;25.47;;;23.67;;
1975;SDS011;988;48.016;7.800;2022-12-07T12:55:59;27.93;;;26.33;;
1975;SDS011;988;48.016;7.800;2022-12-07T12:58:40;29.10;;;27.10;;
1975;SDS011;988;48.016;7.800;2022-12-07T13:04:00;25.70;;;24.03;;
1975;SDS011;988;48.016;7.800;2022-12-07T13:08:54;26.77;;;24.97;;
1975;SDS011;988;48.016;7.800;2022-12-07T13:11:36;25.13;;;23.47;;
1975;SDS011;988;48.016;7.800;2022-12-07T13:20:00;27.45;;;25.48;;
1975;SDS011;988;48.016;7.800;2022-12-07T13:31:14;28.10;;;26.38;;
1975;SDS011;988;48.016;7.800;2022-12-07T13:33:46;26.50;;;25.00;;
1975;SDS011;988;48.016;7.800;2022-12-07T13:36:14;28.27;;;26.48;;
1975;SDS011;988;48.016;7.800;2022-12-07T13:38:52;30.90;;;28.80;;
1975;SDS011;988;48.016;7.800;2022-12-07T13:41:23;32.40;;;29.83;;
1975;SDS011;988;48.016;7.800;2022-12-07T13:44:12;34.05;;;31.35;;
1975;SDS011;988;48.016;7.800;2022-12-07T13:49:48;27.67;;;25.63;;
1975;SDS011;988;48.016;7.800;2022-12-07T13:52:23;27.13;;;25.08;;
1975;SDS011;988;48.016;7.800;2022-12-07T13:55:00;24.75;;;23.30;;
1975;SDS011;988;48.016;7.800;2022-12-07T13:57:30;28.17;;;26.48;;
1975;SDS011;988;48.016;7.800;2022-12-07T13:59:59;27.02;;;25.55;;
1975;SDS011;988;48.016;7.800;2022-12-07T14:02:27;24.80;;;23.00;;
1975;SDS011;988;48.016;7.800;2022-12-07T14:05:15;26.95;;;25.20;;
1975;SDS011;988;48.016;7.800;2022-12-07T14:07:59;25.95;;;23.60;;
1975;SDS011;988;48.016;7.800;2022-12-07T14:10:26;30.95;;;28.20;;
1975;SDS011;988;48.016;7.800;2022-12-07T14:12:57;27.25;;;25.40;;
1975;SDS011;988;48.016;7.800;2022-12-07T14:15:25;24.60;;;23.10;;
1975;SDS011;988;48.016;7.800;2022-12-07T14:17:54;24.20;;;22.65;;
1975;SDS011;988;48.016;7.800;2022-12-07T14:20:39;27.98;;;26.38;;
1975;SDS011;988;48.016;7.800;2022-12-07T14:23:21;29.05;;;27.02;;
1975;SDS011;988;48.016;7.800;2022-12-07T14:25:50;26.52;;;24.08;;
1975;SDS011;988;48.016;7.800;2022-12-07T14:28:31;26.10;;;24.40;;
1975;SDS011;988;48.016;7.800;2022-12-07T14:30:58;27.00;;;24.80;;
1975;SDS011;988;48.016;7.800;2022-12-07T14:33:24;26.67;;;24.45;;
1975;SDS011;988;48.016;7.800;2022-12-07T14:35:50;28.58;;;26.67;;
1975;SDS011;988;48.016;7.800;2022-12-07T14:38:21;28.27;;;26.00;;
1975;SDS011;988;48.016;7.800;2022-12-07T14:40:47;26.55;;;24.40;;
1975;SDS011;988;48.016;7.800;2022-12-07T14:43:14;26.65;;;24.35;;
1975;SDS011;988;48.016;7.800;2022-12-07T14:45:41;28.65;;;26.60;;
1975;SDS011;988;48.016;7.800;2022-12-07T14:48:07;27.77;;;25.77;;
1975;SDS011;988;48.016;7.800;2022-12-07T14:50:37;26.00;;;24.08;;
1975;SDS011;988;48.016;7.800;2022-12-07T14:53:15;25.50;;;23.50;;
1975;SDS011;988;48.016;7.800;2022-12-07T14:55:42;24.00;;;22.30;;
1975;SDS011;988;48.016;7.800;2022-12-07T14:58:14;32.97;;;29.87;;
1975;SDS011;988;48.016;7.800;2022-12-07T15:00:41;25.65;;;23.70;;
1975;SDS011;988;48.016;7.800;2022-12-07T15:03:07;24.70;;;22.92;;
1975;SDS011;988;48.016;7.800;2022-12-07T15:05:33;27.67;;;25.57;;
1975;SDS011;988;48.016;7.800;2022-12-07T15:07:59;26.05;;;24.15;;
1975;SDS011;988;48.016;7.800;2022-12-07T15:10:26;27.97;;;23.50;;
1975;SDS011;988;48.016;7.800;2022-12-07T15:13:02;25.55;;;23.65;;
1975;SDS011;988;48.016;7.800;2022-12-07T15:15:47;24.17;;;22.38;;
1975;SDS011;988;48.016;7.800;2022-12-07T15:18:13;25.30;;;23.40;;
1975;SDS011;988;48.016;7.800;2022-12-07T15:20:39;29.10;;;27.00;;
1975;SDS011;988;48.016;7.800;2022-12-07T15:23:05;24.27;;;22.53;;
1975;SDS011;988;48.016;7.800;2022-12-07T15:25:31;24.50;;;22.40;;
1975;SDS011;988;48.016;7.800;2022-12-07T15:27:56;26.10;;;24.00;;
1975;SDS011;988;48.016;7.800;2022-12-07T15:30:22;25.47;;;23.50;;
1975;SDS011;988;48.016;7.800;2022-12-07T15:32:51;32.80;;;30.07;;
1975;SDS011;988;48.016;7.800;2022-12-07T15:35:17;31.85;;;28.00;;
1975;SDS011;988;48.016;7.800;2022-12-07T15:37:42;36.50;;;32.43;;
1975;SDS011;988;48.016;7.800;2022-12-07T15:40:08;36.40;;;29.57;;
1975;SDS011;988;48.016;7.800;2022-12-07T15:42:35;28.58;;;26.05;;
1975;SDS011;988;48.016;7.800;2022-12-07T15:45:01;25.23;;;23.33;;
1975;SDS011;988;48.016;7.800;2022-12-07T15:47:30;25.65;;;23.55;;
1975;SDS011;988;48.016;7.800;2022-12-07T15:49:56;26.25;;;23.80;;
1975;SDS011;988;48.016;7.800;2022-12-07T15:52:21;25.57;;;23.27;;
1975;SDS011;988;48.016;7.800;2022-12-07T15:54:47;25.33;;;23.30;;
1975;SDS011;988;48.016;7.800;2022-12-07T15:57:13;25.20;;;23.30;;
1975;SDS011;988;48.016;7.800;2022-12-07T15:59:38;28.47;;;26.07;;
1975;SDS011;988;48.016;7.800;2022-12-07T16:02:04;27.60;;;25.13;;
1975;SDS011;988;48.016;7.800;2022-12-07T16:04:30;25.20;;;23.00;;
1975;SDS011;988;48.016;7.800;2022-12-07T16:06:55;24.57;;;22.67;;
1975;SDS011;988;48.016;7.800;2022-12-07T16:09:21;24.30;;;22.20;;
1975;SDS011;988;48.016;7.800;2022-12-07T16:11:47;24.23;;;21.90;;
1975;SDS011;988;48.016;7.800;2022-12-07T16:14:15;25.90;;;23.20;;
1975;SDS011;988;48.016;7.800;2022-12-07T16:16:40;26.67;;;24.33;;
1975;SDS011;988;48.016;7.800;2022-12-07T16:19:06;27.63;;;23.13;;
1975;SDS011;988;48.016;7.800;2022-12-07T16:21:33;26.17;;;23.95;;
1975;SDS011;988;48.016;7.800;2022-12-07T16:23:59;25.30;;;22.92;;
1975;SDS011;988;48.016;7.800;2022-12-07T16:26:25;25.07;;;22.90;;
1975;SDS011;988;48.016;7.800;2022-12-07T16:28:51;25.30;;;23.20;;
1975;SDS011;988;48.016;7.800;2022-12-07T16:31:18;29.17;;;26.30;;
1975;SDS011;988;48.016;7.800;2022-12-07T16:33:45;26.83;;;24.33;;
1975;SDS011;988;48.016;7.800;2022-12-07T16:36:11;28.67;;;25.77;;
1975;SDS011;988;48.016;7.800;2022-12-07T16:38:40;32.45;;;29.35;;
1975;SDS011;988;48.016;7.800;2022-12-07T16:41:21;31.23;;;28.40;;
1975;SDS011;988;48.016;7.800;2022-12-07T16:43:48;36.63;;;31.77;;
1975;SDS011;988;48.016;7.800;2022-12-07T16:46:14;44.43;;;35.50;;
1975;SDS011;988;48.016;7.800;2022-12-07T16:51:38;174.07;;;72.95;;
1975;SDS011;988;48.016;7.800;2022-12-07T16:54:04;164.93;;;68.25;;
1975;SDS011;988;48.016;7.800;2022-12-07T16:56:29;91.57;;;49.60;;
1975;SDS011;988;48.016;7.800;2022-12-07T16:58:57;62.20;;;42.00;;
1975;SDS011;988;48.016;7.800;2022-12-07T17:01:23;49.95;;;35.90;;
1975;SDS011;988;48.016;7.800;2022-12-07T17:03:49;40.63;;;33.90;;